sensor_id;sensor_type;location;lat;lon;timestamp;P1;durP1;ratioP1;P2;durP2;ratioP2
52590;SDS011;38483;42.620;25.394;2023-03-23T00:02:15;24.67;;;15.20;;
52590;SDS011;38483;42.620;25.394;2023-03-23T00:04:41;26.90;;;15.13;;
52590;SDS011;38483;42.620;25.394;2023-03-23T00:07:08;26.93;;;14.70;;
52590;SDS011;38483;42.620;25.394;2023-03-23T00:09:34;27.07;;;16.20;;
52590;SDS011;38483;42.620;25.394;2023-03-23T00:12:06;23.93;;;15.13;;
52590;SDS011;38483;42.620;25.394;2023-03-23T00:14:33;27.70;;;16.97;;
52590;SDS011;38483;42.620;25.394;2023-03-23T00:17:10;24.13;;;15.73;;
52590;SDS011;38483;42.620;25.394;2023-03-23T00:19:39;26.20;;;16.77;;
52590;SDS011;38483;42.620;25.394;2023-03-23T00:22:12;29.10;;;16.80;;
52590;SDS011;38483;42.620;25.394;2023-03-23T00:24:40;26.40;;;15.87;;
52590;SDS011;38483;42.620;25.394;2023-03-23T00:27:07;23.67;;;15.80;;
52590;SDS011;38483;42.620;25.394;2023-03-23T00:29:34;27.67;;;16.83;;
52590;SDS011;38483;42.620;25.394;2023-03-23T00:32:00;26.73;;;16.83;;
52590;SDS011;38483;42.620;25.394;2023-03-23T00:34:31;29.53;;;16.93;;
52590;SDS011;38483;42.620;25.394;2023-03-23T00:36:58;26.80;;;15.73;;
52590;SDS011;38483;42.620;25.394;2023-03-23T00:39:25;27.20;;;16.63;;
52590;SDS011;38483;42.620;25.394;2023-03-23T00:41:53;29.90;;;18.47;;
52590;SDS011;38483;42.620;25.394;2023-03-23T00:44:32;28.23;;;17.13;;
52590;SDS011;38483;42.620;25.394;2023-03-23T00:47:01;30.93;;;17.33;;
52590;SDS011;38483;42.620;25.394;2023-03-23T00:49:30;29.30;;;16.33;;
52590;SDS011;38483;42.620;25.394;2023-03-23T00:52:00;24.73;;;15.80;;
52590;SDS011;38483;42.620;25.394;2023-03-23T00:54:26;27.50;;;16.77;;
52590;SDS011;38483;42.620;25.394;2023-03-23T00:56:53;28.57;;;16.87;;
52590;SDS011;38483;42.620;25.394;2023-03-23T00:59:19;27.27;;;16.53;;
52590;SDS011;38483;42.620;25.394;2023-03-23T01:01:46;28.23;;;17.10;;
52590;SDS011;38483;42.620;25.394;2023-03-23T01:04:13;25.07;;;15.63;;
52590;SDS011;38483;42.620;25.394;2023-03-23T01:06:42;27.00;;;16.77;;
52590;SDS011;38483;42.620;25.394;2023-03-23T01:09:13;27.10;;;16.97;;
52590;SDS011;38483;42.620;25.394;2023-03-23T01:11:43;31.83;;;18.47;;
52590;SDS011;38483;42.620;25.394;2023-03-23T01:14:10;32.60;;;19.27;;
52590;SDS011;38483;42.620;25.394;2023-03-23T01:16:37;34.07;;;18.67;;
52590;SDS011;38483;42.620;25.394;2023-03-23T01:19:03;32.87;;;19.07;;
52590;SDS011;38483;42.620;25.394;2023-03-23T01:21:29;33.17;;;17.83;;
52590;SDS011;38483;42.620;25.394;2023-03-23T01:23:55;32.17;;;18.13;;
52590;SDS011;38483;42.620;25.394;2023-03-23T01:26:23;29.60;;;17.90;;
52590;SDS011;38483;42.620;25.394;2023-03-23T01:28:51;28.87;;;18.13;;
52590;SDS011;38483;42.620;25.394;2023-03-23T01:31:19;28.90;;;16.07;;
52590;SDS011;38483;42.620;25.394;2023-03-23T01:33:47;27.93;;;17.17;;
52590;SDS011;38483;42.620;25.394;2023-03-23T01:36:17;30.40;;;16.80;;
52590;SDS011;38483;42.620;25.394;2023-03-23T01:38:45;29.00;;;16.50;;
52590;SDS011;38483;42.620;25.394;2023-03-23T01:41:13;27.43;;;16.90;;
52590;SDS011;38483;42.620;25.394;2023-03-23T01:43:57;29.70;;;17.37;;
52590;SDS011;38483;42.620;25.394;2023-03-23T01:46:27;29.13;;;17.67;;
52590;SDS011;38483;42.620;25.394;2023-03-23T01:48:56;32.00;;;18.23;;
52590;SDS011;38483;42.620;25.394;2023-03-23T01:51:26;29.90;;;18.87;;
52590;SDS011;38483;42.620;25.394;2023-03-23T01:53:57;31.70;;;18.30;;
52590;SDS011;38483;42.620;25.394;2023-03-23T01:56:27;36.17;;;19.23;;
52590;SDS011;38483;42.620;25.394;2023-03-23T01:58:59;35.50;;;19.07;;
52590;SDS011;38483;42.620;25.394;2023-03-23T02:01:25;37.73;;;19.40;;
52590;SDS011;38483;42.620;25.394;2023-03-23T02:03:52;30.90;;;17.83;;
52590;SDS011;38483;42.620;25.394;2023-03-23T02:06:21;28.70;;;17.23;;
52590;SDS011;38483;42.620;25.394;2023-03-23T02:09:09;32.57;;;18.00;;
52590;SDS011;38483;42.620;25.394;2023-03-23T02:11:37;35.27;;;19.53;;
52590;SDS011;38483;42.620;25.394;2023-03-23T02:14:03;31.47;;;18.83;;
52590;SDS011;38483;42.620;25.394;2023-03-23T02:19:39;30.63;;;16.57;;
52590;SDS011;38483;42.620;25.394;2023-03-23T02:24:46;26.23;;;15.70;;
52590;SDS011;38483;42.620;25.394;2023-03-23T02:30:13;21.77;;;12.43;;
52590;SDS011;38483;42.620;25.394;2023-03-23T02:32:45;18.03;;;12.13;;
52590;SDS011;38483;42.620;25.394;2023-03-23T02:35:42;18.33;;;12.07;;
52590;SDS011;38483;42.620;25.394;2023-03-23T02:38:26;14.70;;;9.57;;
52590;SDS011;38483;42.620;25.394;2023-03-23T02:41:03;15.57;;;10.03;;
52590;SDS011;38483;42.620;25.394;2023-03-23T02:43:33;14.77;;;10.07;;
52590;SDS011;38483;42.620;25.394;2023-03-23T02:46:04;19.50;;;11.27;;
52590;SDS011;38483;42.620;25.394;2023-03-23T02:48:32;15.43;;;10.60;;
52590;SDS011;38483;42.620;25.394;2023-03-23T02:50:59;13.73;;;8.87;;
52590;SDS011;38483;42.620;25.394;2023-03-23T02:53:27;8.53;;;6.67;;
52590;SDS011;38483;42.620;25.394;2023-03-23T02:55:55;12.37;;;5.63;;
52590;SDS011;38483;42.620;25.394;2023-03-23T02:58:26;7.73;;;6.07;;
52590;SDS011;38483;42.620;25.394;2023-03-23T03:00:53;8.80;;;5.70;;
52590;SDS011;38483;42.620;25.394;2023-03-23T03:03:23;8.47;;;6.50;;
52590;SDS011;38483;42.620;25.394;2023-03-23T03:08:52;16.37;;;10.07;;
52590;SDS011;38483;42.620;25.394;2023-03-23T03:11:24;12.50;;;7.87;;
52590;SDS011;38483;42.620;25.394;2023-03-23T03:13:59;10.03;;;6.93;;
52590;SDS011;38483;42.620;25.394;2023-03-23T03:19:29;7.97;;;6.07;;
52590;SDS011;38483;42.620;25.394;2023-03-23T03:21:59;10.33;;;6.40;;
52590;SDS011;38483;42.620;25.394;2023-03-23T03:24:37;9.73;;;6.40;;
52590;SDS011;38483;42.620;25.394;2023-03-23T03:27:05;10.70;;;7.57;;
52590;SDS011;38483;42.620;25.394;2023-03-23T03:30:01;11.50;;;8.00;;
52590;SDS011;38483;42.620;25.394;2023-03-23T03:32:33;10.33;;;7.33;;
52590;SDS011;38483;42.620;25.394;2023-03-23T03:35:05;11.10;;;7.83;;
52590;SDS011;38483;42.620;25.394;2023-03-23T03:37:35;10.90;;;7.43;;
52590;SDS011;38483;42.620;25.394;2023-03-23T03:40:07;11.17;;;7.77;;
52590;SDS011;38483;42.620;25.394;2023-03-23T03:42:39;11.00;;;6.80;;
52590;SDS011;38483;42.620;25.394;2023-03-23T03:45:09;9.90;;;7.40;;
52590;SDS011;38483;42.620;25.394;2023-03-23T03:47:37;5.93;;;4.67;;
52590;SDS011;38483;42.620;25.394;2023-03-23T03:50:03;7.27;;;4.90;;
52590;SDS011;38483;42.620;25.394;2023-03-23T03:52:30;4.93;;;3.47;;
52590;SDS011;38483;42.620;25.394;2023-03-23T03:54:57;3.63;;;2.83;;
52590;SDS011;38483;42.620;25.394;2023-03-23T03:57:23;3.20;;;2.33;;
52590;SDS011;38483;42.620;25.394;2023-03-23T04:00:08;2.63;;;2.33;;
52590;SDS011;38483;42.620;25.394;2023-03-23T04:02:49;3.37;;;2.87;;
52590;SDS011;38483;42.620;25.394;2023-03-23T04:05:40;2.67;;;2.30;;
52590;SDS011;38483;42.620;25.394;2023-03-23T04:08:07;4.37;;;3.00;;
52590;SDS011;38483;42.620;25.394;2023-03-23T04:10:33;4.97;;;3.77;;
52590;SDS011;38483;42.620;25.394;2023-03-23T04:13:00;4.33;;;3.37;;
52590;SDS011;38483;42.620;25.394;2023-03-23T04:15:45;5.93;;;4.07;;
52590;SDS011;38483;42.620;25.394;2023-03-23T04:18:12;5.93;;;4.30;;
52590;SDS011;38483;42.620;25.394;2023-03-23T04:20:41;6.00;;;4.37;;
52590;SDS011;38483;42.620;25.394;2023-03-23T04:23:10;6.03;;;4.53;;
52590;SDS011;38483;42.620;25.394;2023-03-23T04:25:36;8.40;;;5.07;;
52590;SDS011;38483;42.620;25.394;2023-03-23T04:28:04;5.50;;;4.00;;
52590;SDS011;38483;42.620;25.394;2023-03-23T04:30:37;6.10;;;4.57;;
52590;SDS011;38483;42.620;25.394;2023-03-23T04:33:06;7.30;;;5.17;;
52590;SDS011;38483;42.620;25.394;2023-03-23T04:35:32;6.53;;;4.57;;
52590;SDS011;38483;42.620;25.394;2023-03-23T04:38:10;6.67;;;4.27;;
52590;SDS011;38483;42.620;25.394;2023-03-23T04:40:38;6.20;;;4.40;;
52590;SDS011;38483;42.620;25.394;2023-03-23T04:43:23;6.10;;;4.40;;
52590;SDS011;38483;42.620;25.394;2023-03-23T04:46:11;6.60;;;4.90;;
52590;SDS011;38483;42.620;25.394;2023-03-23T04:48:38;6.23;;;4.23;;
52590;SDS011;38483;42.620;25.394;2023-03-23T04:51:18;5.10;;;3.90;;
52590;SDS011;38483;42.620;25.394;2023-03-23T04:53:47;5.43;;;4.00;;
52590;SDS011;38483;42.620;25.394;2023-03-23T04:56:13;6.03;;;4.10;;
52590;SDS011;38483;42.620;25.394;2023-03-23T04:58:43;5.27;;;3.90;;
52590;SDS011;38483;42.620;25.394;2023-03-23T05:01:30;6.00;;;4.20;;
52590;SDS011;38483;42.620;25.394;2023-03-23T05:04:19;6.43;;;3.70;;
52590;SDS011;38483;42.620;25.394;2023-03-23T05:06:56;3.73;;;3.07;;
52590;SDS011;38483;42.620;25.394;2023-03-23T05:09:26;4.77;;;3.50;;
52590;SDS011;38483;42.620;25.394;2023-03-23T05:11:52;2.97;;;2.57;;
52590;SDS011;38483;42.620;25.394;2023-03-23T05:14:18;3.23;;;2.47;;
52590;SDS011;38483;42.620;25.394;2023-03-23T05:16:52;4.17;;;2.40;;
52590;SDS011;38483;42.620;25.394;2023-03-23T05:19:19;3.27;;;2.70;;
52590;SDS011;38483;42.620;25.394;2023-03-23T05:21:46;4.77;;;3.07;;
52590;SDS011;38483;42.620;25.394;2023-03-23T05:24:12;4.47;;;3.17;;
52590;SDS011;38483;42.620;25.394;2023-03-23T05:26:39;5.33;;;3.27;;
52590;SDS011;38483;42.620;25.394;2023-03-23T05:29:14;7.23;;;5.47;;
52590;SDS011;38483;42.620;25.394;2023-03-23T05:31:52;5.93;;;4.53;;
52590;SDS011;38483;42.620;25.394;2023-03-23T05:34:19;6.13;;;4.87;;
52590;SDS011;38483;42.620;25.394;2023-03-23T05:36:49;7.40;;;5.40;;
52590;SDS011;38483;42.620;25.394;2023-03-23T05:39:28;7.27;;;5.13;;
52590;SDS011;38483;42.620;25.394;2023-03-23T05:42:05;7.53;;;5.37;;
52590;SDS011;38483;42.620;25.394;2023-03-23T05:44:47;10.00;;;5.90;;
52590;SDS011;38483;42.620;25.394;2023-03-23T05:47:14;6.67;;;5.13;;
52590;SDS011;38483;42.620;25.394;2023-03-23T05:49:48;3.77;;;2.33;;
52590;SDS011;38483;42.620;25.394;2023-03-23T05:52:17;1.60;;;1.50;;
52590;SDS011;38483;42.620;25.394;2023-03-23T05:54:45;1.50;;;1.30;;
52590;SDS011;38483;42.620;25.394;2023-03-23T05:57:11;1.83;;;1.37;;
52590;SDS011;38483;42.620;25.394;2023-03-23T05:59:49;1.30;;;1.20;;
52590;SDS011;38483;42.620;25.394;2023-03-23T06:02:22;2.27;;;1.20;;
52590;SDS011;38483;42.620;25.394;2023-03-23T06:04:51;1.37;;;1.27;;
52590;SDS011;38483;42.620;25.394;2023-03-23T06:07:28;1.83;;;1.40;;
52590;SDS011;38483;42.620;25.394;2023-03-23T06:10:01;1.60;;;1.10;;
52590;SDS011;38483;42.620;25.394;2023-03-23T06:12:38;1.53;;;1.20;;
52590;SDS011;38483;42.620;25.394;2023-03-23T06:15:23;1.17;;;1.00;;
52590;SDS011;38483;42.620;25.394;2023-03-23T06:18:16;1.20;;;1.10;;
52590;SDS011;38483;42.620;25.394;2023-03-23T06:21:03;1.37;;;1.10;;
52590;SDS011;38483;42.620;25.394;2023-03-23T06:24:04;1.27;;;0.93;;
52590;SDS011;38483;42.620;25.394;2023-03-23T06:26:31;2.20;;;1.43;;
52590;SDS011;38483;42.620;25.394;2023-03-23T06:29:02;1.23;;;1.07;;
52590;SDS011;38483;42.620;25.394;2023-03-23T06:31:40;1.83;;;1.20;;
52590;SDS011;38483;42.620;25.394;2023-03-23T06:34:08;3.23;;;1.40;;
52590;SDS011;38483;42.620;25.394;2023-03-23T06:37:10;1.10;;;1.00;;
52590;SDS011;38483;42.620;25.394;2023-03-23T06:39:48;1.03;;;0.90;;
52590;SDS011;38483;42.620;25.394;2023-03-23T06:42:40;1.20;;;1.00;;
52590;SDS011;38483;42.620;25.394;2023-03-23T06:45:25;1.30;;;1.10;;
52590;SDS011;38483;42.620;25.394;2023-03-23T06:48:04;1.20;;;1.07;;
52590;SDS011;38483;42.620;25.394;2023-03-23T06:50:31;2.80;;;1.40;;
52590;SDS011;38483;42.620;25.394;2023-03-23T06:52:58;1.13;;;1.00;;
52590;SDS011;38483;42.620;25.394;2023-03-23T06:55:24;1.40;;;1.20;;
52590;SDS011;38483;42.620;25.394;2023-03-23T06:57:50;1.77;;;1.43;;
52590;SDS011;38483;42.620;25.394;2023-03-23T07:00:16;1.57;;;1.30;;
52590;SDS011;38483;42.620;25.394;2023-03-23T07:02:43;1.37;;;1.27;;
52590;SDS011;38483;42.620;25.394;2023-03-23T07:05:11;1.30;;;1.20;;
52590;SDS011;38483;42.620;25.394;2023-03-23T07:07:38;1.80;;;1.23;;
52590;SDS011;38483;42.620;25.394;2023-03-23T07:10:28;1.53;;;1.43;;
52590;SDS011;38483;42.620;25.394;2023-03-23T07:12:55;1.30;;;1.20;;
52590;SDS011;38483;42.620;25.394;2023-03-23T07:15:21;1.97;;;1.50;;
52590;SDS011;38483;42.620;25.394;2023-03-23T07:17:50;1.77;;;1.60;;
52590;SDS011;38483;42.620;25.394;2023-03-23T07:20:27;1.87;;;1.43;;
52590;SDS011;38483;42.620;25.394;2023-03-23T07:22:53;2.37;;;1.40;;
52590;SDS011;38483;42.620;25.394;2023-03-23T07:25:45;2.63;;;1.93;;
52590;SDS011;38483;42.620;25.394;2023-03-23T07:28:19;2.20;;;1.87;;
52590;SDS011;38483;42.620;25.394;2023-03-23T07:30:46;2.53;;;1.87;;
52590;SDS011;38483;42.620;25.394;2023-03-23T07:33:12;2.73;;;2.43;;
52590;SDS011;38483;42.620;25.394;2023-03-23T07:35:39;4.17;;;3.10;;
52590;SDS011;38483;42.620;25.394;2023-03-23T07:38:11;4.60;;;2.80;;
52590;SDS011;38483;42.620;25.394;2023-03-23T07:40:38;2.73;;;2.43;;
52590;SDS011;38483;42.620;25.394;2023-03-23T07:43:10;3.50;;;2.20;;
52590;SDS011;38483;42.620;25.394;2023-03-23T07:45:55;3.17;;;2.50;;
52590;SDS011;38483;42.620;25.394;2023-03-23T07:48:25;4.23;;;2.70;;
52590;SDS011;38483;42.620;25.394;2023-03-23T07:50:51;3.80;;;3.20;;
52590;SDS011;38483;42.620;25.394;2023-03-23T07:53:17;3.30;;;2.77;;
52590;SDS011;38483;42.620;25.394;2023-03-23T07:55:52;3.40;;;3.10;;
52590;SDS011;38483;42.620;25.394;2023-03-23T07:58:50;4.60;;;3.20;;
52590;SDS011;38483;42.620;25.394;2023-03-23T08:01:17;5.40;;;2.80;;
52590;SDS011;38483;42.620;25.394;2023-03-23T08:03:59;5.87;;;3.47;;
52590;SDS011;38483;42.620;25.394;2023-03-23T08:06:51;3.40;;;3.10;;
52590;SDS011;38483;42.620;25.394;2023-03-23T08:09:44;4.70;;;3.30;;
52590;SDS011;38483;42.620;25.394;2023-03-23T08:12:36;4.40;;;3.20;;
52590;SDS011;38483;42.620;25.394;2023-03-23T08:15:22;6.23;;;4.27;;
52590;SDS011;38483;42.620;25.394;2023-03-23T08:18:05;5.93;;;4.17;;
52590;SDS011;38483;42.620;25.394;2023-03-23T08:20:31;7.03;;;4.00;;
52590;SDS011;38483;42.620;25.394;2023-03-23T08:23:19;6.43;;;4.47;;
52590;SDS011;38483;42.620;25.394;2023-03-23T08:25:45;7.27;;;4.90;;
52590;SDS011;38483;42.620;25.394;2023-03-23T08:28:17;6.00;;;4.93;;
52590;SDS011;38483;42.620;25.394;2023-03-23T08:31:08;6.50;;;4.87;;
52590;SDS011;38483;42.620;25.394;2023-03-23T08:33:50;7.00;;;4.40;;
52590;SDS011;38483;42.620;25.394;2023-03-23T08:36:34;6.87;;;5.50;;
52590;SDS011;38483;42.620;25.394;2023-03-23T08:39:35;7.17;;;4.73;;
52590;SDS011;38483;42.620;25.394;2023-03-23T08:42:24;7.00;;;4.80;;
52590;SDS011;38483;42.620;25.394;2023-03-23T08:45:06;8.03;;;4.93;;
52590;SDS011;38483;42.620;25.394;2023-03-23T08:48:03;10.17;;;6.67;;
52590;SDS011;38483;42.620;25.394;2023-03-23T08:50:42;5.27;;;4.47;;
52590;SDS011;38483;42.620;25.394;2023-03-23T08:53:22;6.70;;;5.30;;
52590;SDS011;38483;42.620;25.394;2023-03-23T08:56:03;6.87;;;4.27;;
52590;SDS011;38483;42.620;25.394;2023-03-23T08:58:45;7.53;;;5.80;;
52590;SDS011;38483;42.620;25.394;2023-03-23T09:01:43;7.47;;;5.27;;
52590;SDS011;38483;42.620;25.394;2023-03-23T09:04:41;6.37;;;4.60;;
52590;SDS011;38483;42.620;25.394;2023-03-23T09:07:28;13.23;;;5.70;;
52590;SDS011;38483;42.620;25.394;2023-03-23T09:09:54;6.50;;;4.97;;
52590;SDS011;38483;42.620;25.394;2023-03-23T09:12:20;6.33;;;4.33;;
52590;SDS011;38483;42.620;25.394;2023-03-23T09:14:52;8.37;;;5.53;;
52590;SDS011;38483;42.620;25.394;2023-03-23T09:17:18;9.90;;;5.73;;
52590;SDS011;38483;42.620;25.394;2023-03-23T09:19:44;9.73;;;5.77;;
52590;SDS011;38483;42.620;25.394;2023-03-23T09:22:10;5.67;;;4.90;;
52590;SDS011;38483;42.620;25.394;2023-03-23T09:24:36;6.40;;;4.97;;
52590;SDS011;38483;42.620;25.394;2023-03-23T09:27:03;6.30;;;4.83;;
52590;SDS011;38483;42.620;25.394;2023-03-23T09:29:29;5.93;;;4.83;;
52590;SDS011;38483;42.620;25.394;2023-03-23T09:31:55;9.60;;;5.30;;
52590;SDS011;38483;42.620;25.394;2023-03-23T09:34:21;8.57;;;5.40;;
52590;SDS011;38483;42.620;25.394;2023-03-23T09:36:48;6.97;;;5.33;;
52590;SDS011;38483;42.620;25.394;2023-03-23T09:39:14;7.97;;;5.97;;
52590;SDS011;38483;42.620;25.394;2023-03-23T09:52:11;7.87;;;5.20;;
52590;SDS011;38483;42.620;25.394;2023-03-23T09:54:43;9.13;;;6.00;;
52590;SDS011;38483;42.620;25.394;2023-03-23T10:00:23;8.37;;;5.50;;
52590;SDS011;38483;42.620;25.394;2023-03-23T10:02:59;8.10;;;6.00;;
52590;SDS011;38483;42.620;25.394;2023-03-23T10:05:40;7.23;;;5.43;;
52590;SDS011;38483;42.620;25.394;2023-03-23T10:08:11;8.73;;;6.37;;
52590;SDS011;38483;42.620;25.394;2023-03-23T10:10:45;9.53;;;6.07;;
52590;SDS011;38483;42.620;25.394;2023-03-23T10:13:19;7.00;;;5.37;;
52590;SDS011;38483;42.620;25.394;2023-03-23T10:15:48;7.50;;;5.43;;
52590;SDS011;38483;42.620;25.394;2023-03-23T10:21:06;8.80;;;6.30;;
52590;SDS011;38483;42.620;25.394;2023-03-23T10:28:48;8.10;;;5.63;;
52590;SDS011;38483;42.620;25.394;2023-03-23T10:31:34;9.50;;;5.97;;
52590;SDS011;38483;42.620;25.394;2023-03-23T10:34:17;13.37;;;7.73;;
52590;SDS011;38483;42.620;25.394;2023-03-23T10:36:54;10.30;;;7.13;;
52590;SDS011;38483;42.620;25.394;2023-03-23T10:39:40;8.70;;;5.83;;
52590;SDS011;38483;42.620;25.394;2023-03-23T10:42:12;7.27;;;5.73;;
52590;SDS011;38483;42.620;25.394;2023-03-23T10:44:46;8.50;;;6.23;;
52590;SDS011;38483;42.620;25.394;2023-03-23T10:47:13;7.83;;;6.20;;
52590;SDS011;38483;42.620;25.394;2023-03-23T10:49:45;9.33;;;6.43;;
52590;SDS011;38483;42.620;25.394;2023-03-23T10:52:29;11.83;;;6.87;;
52590;SDS011;38483;42.620;25.394;2023-03-23T10:57:30;7.87;;;5.93;;
52590;SDS011;38483;42.620;25.394;2023-03-23T11:00:04;7.70;;;5.97;;
52590;SDS011;38483;42.620;25.394;2023-03-23T11:02:57;9.13;;;6.93;;
52590;SDS011;38483;42.620;25.394;2023-03-23T11:05:27;11.03;;;6.70;;
52590;SDS011;38483;42.620;25.394;2023-03-23T11:08:21;7.83;;;6.30;;
52590;SDS011;38483;42.620;25.394;2023-03-23T11:13:16;8.97;;;6.90;;
52590;SDS011;38483;42.620;25.394;2023-03-23T11:15:45;10.40;;;7.40;;
52590;SDS011;38483;42.620;25.394;2023-03-23T11:18:17;10.50;;;7.80;;
52590;SDS011;38483;42.620;25.394;2023-03-23T11:20:44;10.60;;;7.90;;
52590;SDS011;38483;42.620;25.394;2023-03-23T11:23:21;17.73;;;8.90;;
52590;SDS011;38483;42.620;25.394;2023-03-23T11:28:22;10.33;;;8.43;;
52590;SDS011;38483;42.620;25.394;2023-03-23T11:30:55;12.17;;;7.80;;
52590;SDS011;38483;42.620;25.394;2023-03-23T11:33:22;11.57;;;7.30;;
52590;SDS011;38483;42.620;25.394;2023-03-23T11:35:50;10.37;;;7.23;;
52590;SDS011;38483;42.620;25.394;2023-03-23T11:38:20;13.30;;;7.27;;
52590;SDS011;38483;42.620;25.394;2023-03-23T11:40:49;12.93;;;7.80;;
52590;SDS011;38483;42.620;25.394;2023-03-23T11:43:23;8.37;;;6.63;;
52590;SDS011;38483;42.620;25.394;2023-03-23T11:51:13;10.20;;;6.97;;
52590;SDS011;38483;42.620;25.394;2023-03-23T11:56:35;13.63;;;8.83;;
52590;SDS011;38483;42.620;25.394;2023-03-23T11:59:05;11.17;;;8.33;;
52590;SDS011;38483;42.620;25.394;2023-03-23T12:06:47;11.47;;;8.10;;
52590;SDS011;38483;42.620;25.394;2023-03-23T12:28:02;9.90;;;7.80;;
52590;SDS011;38483;42.620;25.394;2023-03-23T12:43:48;10.83;;;7.50;;
52590;SDS011;38483;42.620;25.394;2023-03-23T12:49:05;10.53;;;8.10;;
52590;SDS011;38483;42.620;25.394;2023-03-23T12:51:38;10.60;;;7.53;;
52590;SDS011;38483;42.620;25.394;2023-03-23T12:54:12;9.97;;;7.53;;
52590;SDS011;38483;42.620;25.394;2023-03-23T12:57:11;11.03;;;7.60;;
52590;SDS011;38483;42.620;25.394;2023-03-23T12:59:46;9.03;;;7.30;;
52590;SDS011;38483;42.620;25.394;2023-03-23T13:04:52;8.67;;;6.73;;
52590;SDS011;38483;42.620;25.394;2023-03-23T13:07:31;11.50;;;7.87;;
52590;SDS011;38483;42.620;25.394;2023-03-23T13:12:52;11.40;;;7.73;;
52590;SDS011;38483;42.620;25.394;2023-03-23T13:18:04;12.87;;;8.00;;
52590;SDS011;38483;42.620;25.394;2023-03-23T13:21:27;11.47;;;8.07;;
52590;SDS011;38483;42.620;25.394;2023-03-23T13:23:40;9.70;;;6.77;;
52590;SDS011;38483;42.620;25.394;2023-03-23T13:26:19;10.43;;;7.80;;
52590;SDS011;38483;42.620;25.394;2023-03-23T13:28:59;10.83;;;7.40;;
52590;SDS011;38483;42.620;25.394;2023-03-23T13:31:30;10.37;;;7.10;;
52590;SDS011;38483;42.620;25.394;2023-03-23T13:39:32;11.87;;;7.33;;
52590;SDS011;38483;42.620;25.394;2023-03-23T13:49:50;12.13;;;7.80;;
52590;SDS011;38483;42.620;25.394;2023-03-23T13:58:26;8.63;;;6.70;;
52590;SDS011;38483;42.620;25.394;2023-03-23T14:03:13;10.43;;;7.20;;
52590;SDS011;38483;42.620;25.394;2023-03-23T14:13:13;7.90;;;6.70;;
52590;SDS011;38483;42.620;25.394;2023-03-23T14:15:59;8.30;;;6.90;;
52590;SDS011;38483;42.620;25.394;2023-03-23T14:18:48;7.97;;;6.27;;
52590;SDS011;38483;42.620;25.394;2023-03-23T14:21:21;8.00;;;6.73;;
52590;SDS011;38483;42.620;25.394;2023-03-23T14:24:08;9.43;;;6.57;;
52590;SDS011;38483;42.620;25.394;2023-03-23T14:26:36;9.57;;;6.60;;
52590;SDS011;38483;42.620;25.394;2023-03-23T14:29:03;10.73;;;7.20;;
52590;SDS011;38483;42.620;25.394;2023-03-23T14:31:32;8.93;;;6.97;;
52590;SDS011;38483;42.620;25.394;2023-03-23T14:34:01;12.43;;;7.07;;
52590;SDS011;38483;42.620;25.394;2023-03-23T14:36:29;10.40;;;6.87;;
52590;SDS011;38483;42.620;25.394;2023-03-23T14:42:00;10.13;;;7.47;;
52590;SDS011;38483;42.620;25.394;2023-03-23T14:44:30;15.73;;;7.87;;
52590;SDS011;38483;42.620;25.394;2023-03-23T14:46:58;12.27;;;9.27;;
52590;SDS011;38483;42.620;25.394;2023-03-23T14:49:36;12.43;;;8.97;;
52590;SDS011;38483;42.620;25.394;2023-03-23T14:52:15;13.50;;;8.73;;
52590;SDS011;38483;42.620;25.394;2023-03-23T14:54:43;12.77;;;8.33;;
52590;SDS011;38483;42.620;25.394;2023-03-23T14:59:44;9.53;;;7.13;;
52590;SDS011;38483;42.620;25.394;2023-03-23T15:02:16;9.53;;;6.63;;
52590;SDS011;38483;42.620;25.394;2023-03-23T15:04:50;9.73;;;7.17;;
52590;SDS011;38483;42.620;25.394;2023-03-23T15:07:20;9.27;;;6.70;;
52590;SDS011;38483;42.620;25.394;2023-03-23T15:09:48;11.93;;;8.07;;
52590;SDS011;38483;42.620;25.394;2023-03-23T15:12:24;11.27;;;7.67;;
52590;SDS011;38483;42.620;25.394;2023-03-23T15:14:53;9.23;;;6.97;;
52590;SDS011;38483;42.620;25.394;2023-03-23T15:17:23;12.97;;;8.47;;
52590;SDS011;38483;42.620;25.394;2023-03-23T15:19:52;10.13;;;8.33;;
52590;SDS011;38483;42.620;25.394;2023-03-23T15:24:53;11.27;;;7.53;;
52590;SDS011;38483;42.620;25.394;2023-03-23T15:27:33;10.53;;;7.67;;
52590;SDS011;38483;42.620;25.394;2023-03-23T15:30:12;16.40;;;8.13;;
52590;SDS011;38483;42.620;25.394;2023-03-23T15:32:41;10.53;;;7.47;;
52590;SDS011;38483;42.620;25.394;2023-03-23T15:35:17;12.77;;;9.00;;
52590;SDS011;38483;42.620;25.394;2023-03-23T15:37:49;17.80;;;9.13;;
52590;SDS011;38483;42.620;25.394;2023-03-23T15:40:21;13.20;;;7.77;;
52590;SDS011;38483;42.620;25.394;2023-03-23T15:42:48;12.70;;;7.57;;
52590;SDS011;38483;42.620;25.394;2023-03-23T15:45:19;8.53;;;6.60;;
52590;SDS011;38483;42.620;25.394;2023-03-23T15:47:49;12.50;;;7.20;;
52590;SDS011;38483;42.620;25.394;2023-03-23T15:50:17;13.17;;;8.20;;
52590;SDS011;38483;42.620;25.394;2023-03-23T15:52:43;16.00;;;10.93;;
52590;SDS011;38483;42.620;25.394;2023-03-23T15:57:52;13.20;;;8.30;;
52590;SDS011;38483;42.620;25.394;2023-03-23T16:00:21;10.77;;;8.17;;
52590;SDS011;38483;42.620;25.394;2023-03-23T16:02:52;16.27;;;10.93;;
52590;SDS011;38483;42.620;25.394;2023-03-23T16:05:22;13.70;;;9.00;;
52590;SDS011;38483;42.620;25.394;2023-03-23T16:07:49;11.90;;;8.30;;
52590;SDS011;38483;42.620;25.394;2023-03-23T16:10:18;10.30;;;8.10;;
52590;SDS011;38483;42.620;25.394;2023-03-23T16:12:47;11.83;;;7.83;;
52590;SDS011;38483;42.620;25.394;2023-03-23T16:15:15;9.40;;;6.97;;
52590;SDS011;38483;42.620;25.394;2023-03-23T16:17:43;11.17;;;8.83;;
52590;SDS011;38483;42.620;25.394;2023-03-23T16:20:12;12.37;;;9.17;;
52590;SDS011;38483;42.620;25.394;2023-03-23T16:22:41;17.00;;;9.60;;
52590;SDS011;38483;42.620;25.394;2023-03-23T16:25:08;12.73;;;9.30;;
52590;SDS011;38483;42.620;25.394;2023-03-23T16:27:36;13.70;;;9.70;;
52590;SDS011;38483;42.620;25.394;2023-03-23T16:30:18;17.20;;;11.03;;
52590;SDS011;38483;42.620;25.394;2023-03-23T16:32:51;18.30;;;12.53;;
52590;SDS011;38483;42.620;25.394;2023-03-23T16:35:22;23.00;;;13.53;;
52590;SDS011;38483;42.620;25.394;2023-03-23T16:37:52;20.63;;;12.37;;
52590;SDS011;38483;42.620;25.394;2023-03-23T16:40:35;22.83;;;14.93;;
52590;SDS011;38483;42.620;25.394;2023-03-23T16:43:03;21.23;;;14.03;;
52590;SDS011;38483;42.620;25.394;2023-03-23T16:45:35;20.83;;;13.17;;
52590;SDS011;38483;42.620;25.394;2023-03-23T16:48:03;23.43;;;13.63;;
52590;SDS011;38483;42.620;25.394;2023-03-23T16:50:31;20.97;;;13.80;;
52590;SDS011;38483;42.620;25.394;2023-03-23T16:52:59;24.93;;;13.40;;
52590;SDS011;38483;42.620;25.394;2023-03-23T16:55:27;19.40;;;13.63;;
52590;SDS011;38483;42.620;25.394;2023-03-23T16:57:55;15.87;;;11.30;;
52590;SDS011;38483;42.620;25.394;2023-03-23T17:00:41;22.07;;;12.70;;
52590;SDS011;38483;42.620;25.394;2023-03-23T17:03:09;14.33;;;9.80;;
52590;SDS011;38483;42.620;25.394;2023-03-23T17:05:36;16.47;;;10.90;;
52590;SDS011;38483;42.620;25.394;2023-03-23T17:08:04;16.60;;;11.10;;
52590;SDS011;38483;42.620;25.394;2023-03-23T17:10:31;23.67;;;16.37;;
52590;SDS011;38483;42.620;25.394;2023-03-23T17:12:59;14.87;;;11.20;;
52590;SDS011;38483;42.620;25.394;2023-03-23T17:15:26;20.10;;;13.63;;
52590;SDS011;38483;42.620;25.394;2023-03-23T17:18:46;18.40;;;13.27;;
52590;SDS011;38483;42.620;25.394;2023-03-23T17:21:13;17.47;;;12.13;;